createdAt,value
2023-10-13T00:01:28.740Z,87.70
2023-10-13T00:04:06.837Z,87.90
2023-10-13T00:06:35.106Z,87.90
2023-10-13T00:09:03.217Z,87.90
2023-10-13T00:11:31.382Z,87.80
2023-10-13T00:13:59.803Z,88.00
2023-10-13T00:16:30.146Z,88.30
2023-10-13T00:18:58.913Z,88.00
2023-10-13T00:21:33.346Z,87.90
2023-10-13T00:24:02.757Z,87.90
2023-10-13T00:26:31.686Z,87.80
2023-10-13T00:29:17.776Z,88.00
2023-10-13T00:31:49.859Z,88.00
2023-10-13T00:34:20.834Z,87.80
2023-10-13T00:37:10.544Z,88.10
2023-10-13T00:39:41.824Z,88.00
2023-10-13T00:42:18.855Z,87.80
2023-10-13T00:44:50.219Z,88.10
2023-10-13T00:47:38.241Z,87.90
2023-10-13T00:50:06.370Z,87.90
2023-10-13T00:52:34.532Z,87.80
2023-10-13T00:55:01.822Z,87.80
2023-10-13T00:57:31.056Z,87.60
2023-10-13T00:59:58.334Z,87.90
2023-10-13T01:02:39.051Z,87.70
2023-10-13T01:05:06.712Z,87.80
2023-10-13T01:07:38.546Z,87.70
2023-10-13T01:10:14.401Z,87.80
2023-10-13T01:12:43.701Z,87.80
2023-10-13T01:15:12.928Z,87.80
2023-10-13T01:17:47.617Z,87.70
2023-10-13T01:20:21.477Z,87.60
2023-10-13T01:22:56.586Z,87.50
2023-10-13T01:25:29.646Z,87.60
2023-10-13T01:27:58.414Z,87.90
2023-10-13T01:30:25.887Z,87.70
2023-10-13T01:32:55.293Z,87.60
2023-10-13T01:35:28.406Z,87.70
2023-10-13T01:37:56.531Z,87.90
2023-10-13T01:40:30.289Z,87.80
2023-10-13T01:42:58.502Z,87.60
2023-10-13T01:45:30.356Z,87.50
2023-10-13T01:47:58.751Z,87.50
2023-10-13T01:50:30.684Z,87.80
2023-10-13T01:53:11.872Z,87.60
2023-10-13T01:55:44.424Z,87.70
2023-10-13T01:58:16.498Z,87.80
2023-10-13T02:00:44.455Z,87.80
2023-10-13T02:03:16.702Z,87.70
2023-10-13T02:05:48.369Z,87.70
2023-10-13T02:08:24.029Z,87.60
2023-10-13T02:10:52.549Z,87.70
2023-10-13T02:13:23.478Z,87.60
2023-10-13T02:15:52.806Z,87.50
2023-10-13T02:18:27.175Z,87.50
2023-10-13T02:20:57.500Z,87.30
2023-10-13T02:23:26.075Z,87.60
2023-10-13T02:26:01.790Z,87.70
2023-10-13T02:28:30.565Z,87.60
2023-10-13T02:30:59.057Z,87.50
2023-10-13T02:33:30.872Z,87.50
2023-10-13T02:35:59.350Z,87.50
2023-10-13T02:38:30.087Z,87.50
2023-10-13T02:41:06.697Z,87.40
2023-10-13T02:43:44.736Z,87.50
2023-10-13T02:46:17.152Z,87.60
2023-10-13T02:48:47.327Z,87.40
2023-10-13T02:51:18.636Z,87.50
2023-10-13T02:53:49.517Z,87.50
2023-10-13T02:56:21.808Z,87.50
2023-10-13T02:58:54.585Z,87.40
2023-10-13T03:01:23.151Z,87.40
2023-10-13T03:03:55.378Z,87.50
2023-10-13T03:06:24.595Z,87.40
2023-10-13T03:08:53.908Z,87.60
2023-10-13T03:11:23.408Z,87.50
2023-10-13T03:13:53.713Z,87.30
2023-10-13T03:16:21.108Z,87.50
2023-10-13T03:18:58.980Z,87.30
2023-10-13T03:21:32.381Z,87.30
2023-10-13T03:24:06.298Z,87.30
2023-10-13T03:26:36.095Z,87.70
2023-10-13T03:29:08.896Z,87.50
2023-10-13T03:31:40.552Z,87.50
2023-10-13T03:34:12.844Z,87.60
2023-10-13T03:36:59.758Z,87.50
2023-10-13T03:39:30.419Z,87.60
2023-10-13T03:42:00.816Z,87.50
2023-10-13T03:44:31.785Z,87.40
2023-10-13T03:47:19.200Z,87.50
2023-10-13T03:49:52.525Z,87.50
2023-10-13T03:52:24.049Z,87.50
2023-10-13T03:54:52.751Z,87.60
2023-10-13T03:57:22.896Z,87.50
2023-10-13T03:59:51.702Z,87.20
2023-10-13T04:02:25.338Z,87.30
2023-10-13T04:04:56.339Z,87.20
2023-10-13T04:08:04.267Z,87.40
2023-10-13T04:10:49.649Z,87.40
2023-10-13T04:13:36.372Z,87.40
2023-10-13T04:16:16.238Z,87.40
2023-10-13T04:19:05.123Z,87.30
2023-10-13T04:21:43.627Z,87.30
2023-10-13T04:24:24.990Z,87.40
2023-10-13T04:27:15.213Z,87.40
2023-10-13T04:29:52.588Z,87.30
2023-10-13T04:32:29.793Z,87.50
2023-10-13T04:35:09.653Z,87.40
2023-10-13T04:37:51.300Z,87.30
2023-10-13T04:40:20.547Z,87.20
2023-10-13T04:42:54.955Z,87.30
2023-10-13T04:45:40.114Z,87.30
2023-10-13T04:48:29.915Z,87.10
2023-10-13T04:51:16.024Z,87.10
2023-10-13T04:53:58.008Z,87.10
2023-10-13T04:56:39.988Z,87.20
2023-10-13T04:59:36.749Z,87.10
2023-10-13T05:02:43.635Z,87.10
2023-10-13T05:05:44.146Z,87.20
2023-10-13T05:08:29.824Z,87.10
2023-10-13T05:11:14.880Z,87.10
2023-10-13T05:14:00.668Z,86.90
2023-10-13T05:16:46.350Z,87.10
2023-10-13T05:19:38.572Z,87.10
2023-10-13T05:22:29.496Z,87.20
2023-10-13T05:25:15.155Z,87.30
2023-10-13T05:28:00.527Z,87.40
2023-10-13T05:30:46.132Z,87.40
2023-10-13T05:33:31.921Z,87.60
2023-10-13T05:36:18.964Z,87.50
2023-10-13T05:39:16.154Z,87.30
2023-10-13T05:42:01.730Z,87.40
2023-10-13T05:44:38.548Z,87.30
2023-10-13T05:47:39.088Z,87.30
2023-10-13T05:50:29.766Z,87.50
2023-10-13T05:53:31.080Z,87.40
2023-10-13T05:56:21.089Z,87.50
2023-10-13T05:59:06.768Z,87.40
2023-10-13T06:01:52.382Z,87.40
2023-10-13T06:04:38.001Z,87.30
2023-10-13T06:07:20.031Z,87.20
2023-10-13T06:10:09.417Z,87.20
2023-10-13T06:12:56.396Z,87.00
2023-10-13T06:15:42.116Z,87.10
2023-10-13T06:18:27.820Z,87.20
2023-10-13T06:21:12.993Z,87.10
2023-10-13T06:23:58.655Z,87.20
2023-10-13T06:26:45.539Z,87.20
2023-10-13T06:29:21.670Z,87.20
2023-10-13T06:31:50.321Z,87.10
2023-10-13T06:34:22.038Z,87.10
2023-10-13T06:36:50.404Z,87.00
2023-10-13T06:39:38.382Z,87.20
2023-10-13T06:42:07.898Z,87.30
2023-10-13T06:44:36.062Z,87.20
2023-10-13T06:47:05.594Z,87.50
2023-10-13T06:49:40.122Z,87.40
2023-10-13T06:52:08.674Z,87.30
2023-10-13T06:54:38.189Z,87.40
2023-10-13T06:57:15.314Z,87.30
2023-10-13T06:59:43.448Z,87.20
2023-10-13T07:02:28.079Z,87.20
2023-10-13T07:05:08.691Z,87.10
2023-10-13T07:07:38.174Z,87.20
2023-10-13T07:10:09.692Z,87.20
2023-10-13T07:12:44.161Z,87.10
2023-10-13T07:15:20.577Z,87.20
2023-10-13T07:17:56.150Z,87.10
2023-10-13T07:20:34.220Z,87.10
2023-10-13T07:23:05.151Z,87.10
2023-10-13T07:25:36.220Z,87.10
2023-10-13T07:28:09.255Z,87.00
2023-10-13T07:30:43.482Z,87.00
2023-10-13T07:33:14.554Z,86.90
2023-10-13T07:35:43.033Z,87.00
2023-10-13T07:38:11.735Z,86.90
2023-10-13T07:40:42.565Z,86.90
2023-10-13T07:43:12.332Z,87.00
2023-10-13T07:45:44.462Z,86.90
2023-10-13T07:48:21.180Z,86.90
2023-10-13T07:50:50.031Z,86.90
2023-10-13T07:53:24.957Z,86.90
2023-10-13T07:55:56.648Z,87.10
2023-10-13T07:58:27.262Z,86.80
2023-10-13T08:01:08.051Z,86.90
2023-10-13T08:03:46.048Z,86.80
2023-10-13T08:06:23.000Z,87.00
2023-10-13T08:08:56.424Z,86.90
2023-10-13T08:11:33.324Z,86.80
2023-10-13T08:14:22.250Z,86.90
2023-10-13T08:17:01.127Z,87.00
2023-10-13T08:19:33.561Z,87.00
2023-10-13T08:22:22.183Z,87.00
2023-10-13T08:25:00.271Z,87.10
2023-10-13T08:27:47.563Z,86.90
2023-10-13T08:30:30.938Z,86.80
2023-10-13T08:33:00.983Z,86.80
2023-10-13T08:35:45.717Z,86.90
2023-10-13T08:38:30.479Z,86.90
2023-10-13T08:41:18.280Z,86.70
2023-10-13T08:43:52.670Z,86.70
2023-10-13T08:46:29.970Z,86.80
2023-10-13T08:49:14.983Z,87.00
2023-10-13T08:51:46.434Z,86.90
2023-10-13T08:54:21.889Z,86.80
2023-10-13T08:56:57.322Z,86.80
2023-10-13T08:59:34.802Z,86.80
2023-10-13T09:02:17.047Z,87.00
2023-10-13T09:04:46.572Z,86.90
2023-10-13T09:07:16.704Z,86.80
2023-10-13T09:10:34.094Z,87.00
2023-10-13T09:13:04.858Z,86.70
2023-10-13T09:15:46.990Z,86.90
2023-10-13T09:18:43.277Z,86.70
2023-10-13T09:21:28.740Z,86.70
2023-10-13T09:24:16.819Z,86.70
2023-10-13T09:26:45.591Z,86.70
2023-10-13T09:29:19.601Z,86.60
2023-10-13T09:32:03.299Z,86.80
2023-10-13T09:34:35.952Z,86.60
2023-10-13T09:37:05.170Z,86.60
2023-10-13T09:39:42.403Z,86.60
2023-10-13T09:42:13.031Z,86.60
2023-10-13T09:44:43.948Z,86.50
2023-10-13T09:47:19.510Z,86.60
2023-10-13T09:49:50.510Z,86.50
2023-10-13T09:52:26.418Z,86.50
2023-10-13T09:55:13.892Z,86.50
2023-10-13T09:57:49.755Z,86.40
2023-10-13T10:00:38.789Z,86.50
2023-10-13T10:03:16.393Z,86.50
2023-10-13T10:06:01.021Z,86.40
2023-10-13T10:08:34.367Z,86.50
2023-10-13T10:11:17.659Z,86.40
2023-10-13T10:13:54.946Z,86.50
2023-10-13T10:16:24.169Z,86.40
2023-10-13T10:19:03.037Z,86.50
2023-10-13T10:21:37.554Z,86.40
2023-10-13T10:24:16.377Z,86.40
2023-10-13T10:26:53.837Z,86.40
2023-10-13T10:29:22.039Z,86.40
2023-10-13T10:31:50.376Z,86.30
2023-10-13T10:34:20.067Z,86.40
2023-10-13T10:36:52.600Z,86.30
2023-10-13T10:39:20.803Z,86.30
2023-10-13T10:41:53.385Z,86.40
2023-10-13T10:44:35.287Z,86.30
2023-10-13T10:47:20.734Z,86.30
2023-10-13T10:49:50.365Z,86.40
2023-10-13T10:52:20.719Z,86.40
2023-10-13T10:54:59.973Z,86.30
2023-10-13T10:57:32.284Z,86.40
2023-10-13T11:00:12.548Z,86.30
2023-10-13T11:02:40.879Z,86.30
2023-10-13T11:05:11.178Z,86.30
2023-10-13T11:07:51.041Z,86.30
2023-10-13T11:10:28.199Z,86.20
2023-10-13T11:12:57.404Z,86.30
2023-10-13T11:15:34.833Z,86.30
2023-10-13T11:18:07.037Z,86.30
2023-10-13T11:20:44.681Z,86.30
2023-10-13T11:23:15.007Z,86.20
2023-10-13T11:25:45.767Z,86.30
2023-10-13T11:28:21.437Z,86.20
2023-10-13T11:30:52.030Z,86.20
2023-10-13T11:33:25.009Z,86.20
2023-10-13T11:35:59.333Z,86.20
2023-10-13T11:38:30.270Z,86.20
2023-10-13T11:41:14.195Z,86.20
2023-10-13T11:44:06.535Z,86.30
2023-10-13T11:46:55.758Z,86.30
2023-10-13T11:49:36.031Z,86.20
2023-10-13T11:52:26.828Z,86.20
2023-10-13T11:54:56.346Z,86.20
2023-10-13T11:57:25.408Z,86.20
2023-10-13T11:59:57.398Z,86.20
2023-10-13T12:02:43.564Z,86.20
2023-10-13T12:05:14.563Z,86.20
2023-10-13T12:07:49.419Z,86.20
2023-10-13T12:10:34.350Z,86.20
2023-10-13T12:13:06.977Z,86.20
2023-10-13T12:15:52.748Z,86.20
2023-10-13T12:18:23.875Z,86.20
2023-10-13T12:20:58.424Z,86.20
2023-10-13T12:23:32.841Z,86.20
2023-10-13T12:28:42.118Z,86.20
2023-10-13T12:31:13.283Z,86.30
2023-10-13T12:33:42.574Z,86.30
2023-10-13T12:36:31.579Z,86.30
2023-10-13T12:39:17.239Z,86.30
2023-10-13T12:42:04.324Z,86.30
2023-10-13T12:44:50.709Z,86.30
2023-10-13T12:47:36.655Z,86.30
2023-10-13T12:50:24.932Z,86.30
2023-10-13T12:52:53.087Z,86.30
2023-10-13T12:55:26.154Z,86.30
2023-10-13T12:57:57.397Z,86.30
2023-10-13T13:00:27.961Z,86.30
2023-10-13T13:02:57.820Z,86.30
2023-10-13T13:05:30.140Z,86.30
2023-10-13T13:07:58.825Z,86.30
2023-10-13T13:10:36.605Z,86.40
2023-10-13T13:13:07.481Z,86.40
2023-10-13T13:15:35.653Z,86.40
2023-10-13T13:18:12.724Z,86.40
2023-10-13T13:20:54.001Z,86.40
2023-10-13T13:23:22.777Z,86.40
2023-10-13T13:25:50.897Z,86.40
2023-10-13T13:28:20.407Z,86.40
2023-10-13T13:30:51.936Z,86.40
2023-10-13T13:33:25.016Z,86.40
2023-10-13T13:35:56.238Z,86.40
2023-10-13T13:40:56.810Z,86.50
2023-10-13T13:43:51.982Z,86.50
2023-10-13T13:46:20.676Z,86.50
2023-10-13T13:48:49.126Z,86.50
2023-10-13T13:51:20.584Z,86.50
2023-10-13T13:53:49.356Z,86.50
2023-10-13T13:56:19.586Z,86.50
2023-10-13T13:58:50.143Z,86.50
2023-10-13T14:01:19.864Z,86.50
2023-10-13T14:03:48.899Z,86.50
2023-10-13T14:06:22.489Z,86.50
2023-10-13T14:08:52.180Z,86.60
2023-10-13T14:11:44.228Z,86.60
2023-10-13T14:14:14.697Z,86.60
2023-10-13T14:16:46.718Z,86.60
2023-10-13T14:19:20.648Z,86.60
2023-10-13T14:21:54.600Z,86.60
2023-10-13T14:24:28.897Z,86.60
2023-10-13T14:26:57.476Z,86.70
2023-10-13T14:29:28.490Z,86.70
2023-10-13T14:31:56.695Z,86.70
2023-10-13T14:34:26.182Z,86.70
2023-10-13T14:36:55.758Z,86.70
2023-10-13T14:39:31.083Z,86.70
2023-10-13T14:42:01.284Z,86.70
2023-10-13T14:44:30.825Z,86.70
2023-10-13T14:46:59.000Z,86.70
2023-10-13T14:49:32.175Z,86.80
2023-10-13T14:52:00.982Z,86.70
2023-10-13T14:54:34.928Z,86.70
2023-10-13T14:57:15.029Z,86.70
2023-10-13T14:59:45.659Z,86.70
2023-10-13T15:02:13.866Z,86.70
2023-10-13T15:04:42.047Z,86.70
2023-10-13T15:07:10.190Z,86.80
2023-10-13T15:09:44.249Z,86.80
2023-10-13T15:12:14.129Z,86.80
2023-10-13T15:14:46.098Z,86.80
2023-10-13T15:17:17.458Z,86.80
2023-10-13T15:19:45.984Z,86.80
2023-10-13T15:22:21.118Z,86.80
2023-10-13T15:25:02.387Z,86.80
2023-10-13T15:27:30.081Z,86.80
2023-10-13T15:30:00.628Z,86.90
2023-10-13T15:32:44.160Z,86.90
2023-10-13T15:35:13.995Z,87.00
2023-10-13T15:37:43.097Z,86.90
2023-10-13T15:40:16.811Z,87.00
2023-10-13T15:42:46.197Z,87.00
2023-10-13T15:45:19.726Z,87.10
2023-10-13T15:48:16.908Z,87.10
2023-10-13T15:50:40.982Z,87.10
2023-10-13T15:53:09.526Z,87.20
2023-10-13T15:55:38.487Z,87.10
2023-10-13T15:58:08.446Z,87.10
2023-10-13T16:00:38.779Z,87.10
2023-10-13T16:03:12.005Z,87.10
2023-10-13T16:05:43.675Z,87.10
2023-10-13T16:08:13.652Z,87.10
2023-10-13T16:10:42.287Z,87.10
2023-10-13T16:13:18.279Z,87.20
2023-10-13T16:15:49.375Z,87.20
2023-10-13T16:18:23.540Z,87.30
2023-10-13T16:20:53.073Z,87.30
2023-10-13T16:23:21.410Z,87.40
2023-10-13T16:25:50.539Z,87.30
2023-10-13T16:28:18.884Z,87.40
2023-10-13T16:30:48.369Z,87.30
2023-10-13T16:33:16.517Z,87.30
2023-10-13T16:35:47.577Z,87.30
2023-10-13T16:38:16.212Z,87.30
2023-10-13T16:40:44.485Z,87.30
2023-10-13T16:43:13.929Z,87.30
2023-10-13T16:45:45.485Z,87.30
2023-10-13T16:48:17.605Z,87.30
2023-10-13T16:50:45.742Z,87.30
2023-10-13T16:53:13.915Z,87.50
2023-10-13T16:55:44.002Z,87.40
2023-10-13T16:58:13.633Z,87.30
2023-10-13T17:00:44.069Z,87.30
2023-10-13T17:03:16.514Z,87.20
2023-10-13T17:05:44.873Z,87.20
2023-10-13T17:08:14.686Z,87.20
2023-10-13T17:10:42.851Z,87.30
2023-10-13T17:13:10.981Z,87.30
2023-10-13T17:15:39.345Z,87.30
2023-10-13T17:18:08.075Z,87.30
2023-10-13T17:20:38.610Z,87.40
2023-10-13T17:23:08.036Z,87.40
2023-10-13T17:25:36.258Z,87.40
2023-10-13T17:28:11.792Z,87.40
2023-10-13T17:30:40.637Z,87.50
2023-10-13T17:33:12.606Z,87.50
2023-10-13T17:35:42.241Z,87.40
2023-10-13T17:38:11.517Z,87.30
2023-10-13T17:40:39.912Z,87.40
2023-10-13T17:43:09.446Z,87.30
2023-10-13T17:45:37.872Z,87.30
2023-10-13T17:48:07.718Z,87.30
2023-10-13T17:50:36.101Z,87.30
2023-10-13T17:53:05.869Z,87.30
2023-10-13T17:55:34.105Z,87.40
2023-10-13T17:58:02.397Z,87.30
2023-10-13T18:00:30.904Z,87.30
2023-10-13T18:03:01.309Z,87.30
2023-10-13T18:05:29.499Z,87.30
2023-10-13T18:08:00.167Z,87.30
2023-10-13T18:10:31.386Z,87.30
2023-10-13T18:12:59.512Z,87.30
2023-10-13T18:15:27.685Z,87.30
2023-10-13T18:17:57.502Z,87.30
2023-10-13T18:20:26.755Z,87.30
2023-10-13T18:22:55.521Z,87.40
2023-10-13T18:25:26.252Z,87.30
2023-10-13T18:27:55.823Z,87.30
2023-10-13T18:30:24.803Z,87.30
2023-10-13T18:32:55.900Z,87.20
2023-10-13T18:35:26.040Z,87.30
2023-10-13T18:37:54.743Z,87.30
2023-10-13T18:40:22.849Z,87.30
2023-10-13T18:42:52.094Z,87.30
2023-10-13T18:45:23.725Z,87.30
2023-10-13T18:47:53.698Z,87.30
2023-10-13T18:50:24.257Z,87.30
2023-10-13T18:52:52.459Z,87.40
2023-10-13T18:55:20.572Z,87.40
2023-10-13T18:57:48.689Z,87.20
2023-10-13T19:00:23.653Z,87.40
2023-10-13T19:02:53.308Z,87.20
2023-10-13T19:05:22.493Z,87.30
2023-10-13T19:07:51.695Z,87.50
2023-10-13T19:10:20.249Z,87.40
2023-10-13T19:12:51.100Z,87.40
2023-10-13T19:15:19.307Z,87.50
2023-10-13T19:17:47.717Z,87.50
2023-10-13T19:20:17.884Z,87.50
2023-10-13T19:22:47.374Z,87.50
2023-10-13T19:25:15.523Z,87.50
2023-10-13T19:27:43.687Z,87.40
2023-10-13T19:30:12.465Z,87.40
2023-10-13T19:32:41.315Z,87.40
2023-10-13T19:35:10.327Z,87.50
2023-10-13T19:37:43.589Z,87.40
2023-10-13T19:40:13.999Z,87.50
2023-10-13T19:42:42.532Z,87.50
2023-10-13T19:45:14.028Z,87.60
2023-10-13T19:47:45.471Z,87.70
2023-10-13T19:50:15.276Z,87.70
2023-10-13T19:52:44.886Z,87.60
2023-10-13T19:55:17.416Z,87.60
2023-10-13T19:57:52.125Z,87.70
2023-10-13T20:00:26.798Z,87.40
2023-10-13T20:02:55.165Z,87.50
2023-10-13T20:05:23.306Z,87.60
2023-10-13T20:07:54.965Z,87.50
2023-10-13T20:10:23.561Z,87.30
2023-10-13T20:12:51.663Z,87.70
2023-10-13T20:15:20.321Z,87.70
2023-10-13T20:17:50.399Z,87.50
2023-10-13T20:20:21.259Z,87.60
2023-10-13T20:22:50.490Z,87.70
2023-10-13T20:25:20.929Z,87.80
2023-10-13T20:27:49.152Z,88.00
2023-10-13T20:30:17.914Z,88.20
2023-10-13T20:32:49.424Z,88.10
2023-10-13T20:35:23.087Z,88.20
2023-10-13T20:37:53.298Z,87.90
2023-10-13T20:40:28.456Z,88.10
2023-10-13T20:43:01.021Z,88.00
2023-10-13T20:45:29.383Z,88.20
2023-10-13T20:47:57.509Z,88.30
2023-10-13T20:50:25.625Z,88.40
2023-10-13T20:52:57.952Z,88.50
2023-10-13T20:55:27.733Z,88.40
2023-10-13T20:57:56.557Z,88.40
2023-10-13T21:00:31.598Z,88.40
2023-10-13T21:03:00.266Z,88.40
2023-10-13T21:05:28.650Z,88.40
2023-10-13T21:07:56.901Z,88.50
2023-10-13T21:10:26.258Z,88.60
2023-10-13T21:12:58.970Z,88.70
2023-10-13T21:15:27.168Z,88.90
2023-10-13T21:17:55.468Z,88.70
2023-10-13T21:20:23.644Z,88.40
2023-10-13T21:22:52.927Z,88.40
2023-10-13T21:25:28.436Z,88.40
2023-10-13T21:28:02.443Z,88.40
2023-10-13T21:30:32.155Z,88.50
2023-10-13T21:33:00.616Z,88.40
2023-10-13T21:35:33.086Z,88.20
2023-10-13T21:38:01.224Z,88.40
2023-10-13T21:40:30.772Z,88.30
2023-10-13T21:43:06.280Z,88.20
2023-10-13T21:45:34.872Z,88.50
2023-10-13T21:48:04.128Z,88.00
2023-10-13T21:50:32.298Z,88.20
2023-10-13T21:53:00.874Z,87.90
2023-10-13T21:55:29.462Z,88.00
2023-10-13T21:57:59.034Z,88.30
2023-10-13T22:03:25.221Z,87.90
2023-10-13T22:05:57.362Z,88.10
2023-10-13T22:08:25.873Z,88.10
2023-10-13T22:10:55.205Z,88.40
2023-10-13T22:13:23.349Z,88.40
2023-10-13T22:15:52.398Z,88.10
2023-10-13T22:18:20.625Z,87.90
2023-10-13T22:20:50.124Z,88.20
2023-10-13T22:23:18.233Z,88.30
2023-10-13T22:25:46.810Z,88.60
2023-10-13T22:28:16.438Z,88.30
2023-10-13T22:30:50.711Z,88.40
2023-10-13T22:33:19.058Z,88.10
2023-10-13T22:35:47.134Z,88.30
2023-10-13T22:38:16.606Z,88.50
2023-10-13T22:40:44.725Z,88.10
2023-10-13T22:43:12.850Z,88.40
2023-10-13T22:45:42.467Z,88.30
2023-10-13T22:48:11.063Z,88.20
2023-10-13T22:50:39.324Z,88.30
2023-10-13T22:53:07.826Z,88.50
2023-10-13T22:55:44.964Z,88.50
2023-10-13T22:58:13.179Z,88.20
2023-10-13T23:00:50.174Z,88.40
2023-10-13T23:03:19.698Z,88.30
2023-10-13T23:05:54.445Z,88.40
2023-10-13T23:08:23.248Z,88.10
2023-10-13T23:10:53.497Z,88.10
2023-10-13T23:13:22.396Z,87.80
2023-10-13T23:15:54.521Z,88.00
2023-10-13T23:18:24.956Z,88.00
2023-10-13T23:20:53.684Z,88.20
2023-10-13T23:23:25.684Z,88.00
2023-10-13T23:25:56.473Z,88.30
2023-10-13T23:28:35.831Z,88.20
2023-10-13T23:31:06.280Z,88.10
2023-10-13T23:33:34.531Z,88.30
2023-10-13T23:36:04.257Z,88.10
2023-10-13T23:38:35.863Z,88.30
2023-10-13T23:41:06.422Z,88.20
2023-10-13T23:43:45.963Z,87.90
2023-10-13T23:46:14.785Z,88.30
2023-10-13T23:48:45.126Z,88.10
2023-10-13T23:51:13.779Z,88.10
2023-10-13T23:53:46.572Z,88.40
2023-10-13T23:56:17.186Z,88.30
2023-10-13T23:58:59.481Z,88.00
